Time;durP1;ratioP1;P1;durP2;ratioP2;P2;SDS_P1;SDS_P2;PMS_P1;PMS_P2;Temp;Humidity;BMP_temperature;BMP_pressure;BME280_temperature;BME280_humidity;BME280_pressure;Samples;Min_cycle;Max_cycle;Signal;HPM_P1;HPM_P2
2022/01/03 00:00:31;;;;;;;0.53;0.20;;;;;;;6.50;100.00;97871.04;1779750;80;20906;-61
2022/01/03 00:03:04;;;;;;;0.75;0.30;;;;;;;6.48;100.00;97863.80;1786400;79;20926;-61
2022/01/03 00:05:31;;;;;;;3.12;0.88;;;;;;;6.47;100.00;97879.47;1777505;80;21426;-61
2022/01/03 00:07:58;;;;;;;0.90;0.50;;;;;;;6.46;100.00;97882.97;1754531;80;21008;-61
2022/01/03 00:10:25;;;;;;;0.68;0.40;;;;;;;6.45;100.00;97884.73;1755943;80;20954;-61
2022/01/03 00:12:51;;;;;;;0.65;0.23;;;;;;;6.43;100.00;97882.69;1760696;79;20906;-61
2022/01/03 00:15:19;;;;;;;0.50;0.50;;;;;;;6.42;100.00;97893.16;1765716;81;20899;-61
2022/01/03 00:17:48;;;;;;;0.20;0.20;;;;;;;6.39;100.00;97890.29;1798023;78;20930;-61
2022/01/03 00:20:15;;;;;;;0.75;0.37;;;;;;;6.38;100.00;97895.08;1791451;78;21043;-61
2022/01/03 00:23:05;;;;;;;0.90;0.20;;;;;;;6.37;100.00;97902.50;1779237;80;25491;-61
2022/01/03 00:25:38;;;;;;;0.40;0.30;;;;;;;6.37;100.00;97893.89;1764282;80;20957;-60
2022/01/03 00:28:24;;;;;;;0.70;0.25;;;;;;;6.35;100.00;97886.20;1763728;80;20954;-60
2022/01/03 00:30:55;;;;;;;0.35;0.20;;;;;;;6.33;100.00;97895.84;1781336;78;20863;-61
2022/01/03 00:33:23;;;;;;;0.20;0.20;;;;;;;6.32;100.00;97895.45;1779963;80;21092;-61
2022/01/03 00:35:59;;;;;;;0.37;0.20;;;;;;;6.32;100.00;97903.70;1790088;80;20925;-61
2022/01/03 00:38:32;;;;;;;0.10;0.10;;;;;;;6.31;100.00;97915.83;1793070;80;21485;-61
2022/01/03 00:41:00;;;;;;;0.65;0.30;;;;;;;6.26;100.00;97907.48;1773107;80;20899;-61
2022/01/03 00:43:28;;;;;;;0.35;0.20;;;;;;;6.23;100.00;97912.84;1770824;80;20966;-61
2022/01/03 00:45:56;;;;;;;0.20;0.20;;;;;;;6.23;100.00;97915.44;1778725;80;21048;-62
2022/01/03 00:48:23;;;;;;;0.20;0.20;;;;;;;6.22;100.00;97928.04;1792470;80;20933;-61
2022/01/03 00:50:51;;;;;;;0.10;0.10;;;;;;;6.21;100.00;97919.87;1788329;80;23821;-61
2022/01/03 00:53:19;;;;;;;0.17;0.17;;;;;;;6.20;100.00;97920.34;1793015;80;20946;-61
2022/01/03 00:56:02;;;;;;;0.20;0.20;;;;;;;6.22;100.00;97928.04;1788539;80;20930;-61
2022/01/03 00:58:37;;;;;;;0.10;0.10;;;;;;;6.24;100.00;97935.23;1697241;84;21059;-61
2022/01/03 01:01:06;;;;;;;0.30;0.20;;;;;;;6.26;100.00;97928.22;1695636;83;20934;-60
2022/01/03 01:03:38;;;;;;;1.80;0.20;;;;;;;6.27;100.00;97935.06;1697813;84;20926;-60
2022/01/03 01:06:07;;;;;;;1.72;0.53;;;;;;;6.29;100.00;97943.59;1690389;83;20936;-61
2022/01/03 01:08:37;;;;;;;0.82;0.40;;;;;;;6.31;100.00;97930.08;1672333;84;20971;-60
2022/01/03 01:11:07;;;;;;;0.47;0.40;;;;;;;6.35;100.00;97941.09;1696798;83;21529;-60
2022/01/03 01:13:36;;;;;;;0.82;0.30;;;;;;;6.34;100.00;97944.16;1698945;83;20965;-60
2022/01/03 01:16:07;;;;;;;1.20;0.40;;;;;;;6.36;100.00;97944.05;1678299;84;21547;-60
2022/01/03 01:18:36;;;;;;;2.77;0.57;;;;;;;6.35;100.00;97961.37;1671284;84;20958;-61
2022/01/03 01:21:05;;;;;;;1.90;0.65;;;;;;;6.35;100.00;97936.74;1674091;84;20921;-60
2022/01/03 01:23:33;;;;;;;1.37;0.60;;;;;;;6.36;100.00;97960.47;1702945;82;22067;-61
2022/01/03 01:28:45;;;;;;;1.47;0.60;;;;;;;6.34;100.00;97959.71;1669556;84;20987;-61
2022/01/03 01:31:17;;;;;;;0.70;0.30;;;;;;;6.34;100.00;97966.19;1699253;83;20933;-61
2022/01/03 01:33:45;;;;;;;1.45;0.60;;;;;;;6.31;100.00;97959.89;1666847;84;21033;-61
2022/01/03 01:36:14;;;;;;;0.75;0.40;;;;;;;6.33;100.00;97971.02;1786735;79;21190;-61
2022/01/03 01:38:44;;;;;;;0.60;0.40;;;;;;;6.32;100.00;97965.44;1784072;80;20912;-61
2022/01/03 01:41:10;;;;;;;0.65;0.42;;;;;;;6.31;100.00;97965.08;1784404;80;21481;-61
2022/01/03 01:43:44;;;;;;;3.25;0.60;;;;;;;6.27;100.00;97963.56;1756939;80;20926;-61
2022/01/03 01:46:18;;;;;;;0.75;0.42;;;;;;;6.28;100.00;97970.44;1765548;81;20949;-61
2022/01/03 01:48:51;;;;;;;1.10;0.50;;;;;;;6.28;100.00;97967.84;1766658;79;22445;-61
2022/01/03 01:51:22;;;;;;;1.15;0.60;;;;;;;6.26;100.00;97961.91;1763599;79;21413;-61
2022/01/03 01:53:53;;;;;;;2.55;0.75;;;;;;;6.27;100.00;97963.56;1760118;81;20918;-61
2022/01/03 01:56:24;;;;;;;0.80;0.68;;;;;;;6.27;100.00;97968.75;1759137;80;21459;-61
2022/01/03 01:59:09;;;;;;;0.95;0.50;;;;;;;6.27;100.00;97973.94;1771013;80;20985;-61
2022/01/03 02:01:57;;;;;;;0.62;0.30;;;;;;;6.26;100.00;97963.20;1786668;78;21186;-61
2022/01/03 02:04:50;;;;;;;0.35;0.30;;;;;;;6.26;100.00;97967.09;1765399;80;21486;-61
2022/01/03 02:07:39;;;;;;;1.35;0.50;;;;;;;6.25;100.00;97968.03;1754812;80;20856;-61
2022/01/03 02:10:12;;;;;;;1.50;0.72;;;;;;;6.24;100.00;97971.52;1761261;79;20956;-61
2022/01/03 02:12:42;;;;;;;2.00;1.07;;;;;;;6.24;100.00;97974.11;1770711;80;20928;-62
2022/01/03 02:15:14;;;;;;;1.80;0.80;;;;;;;6.23;100.00;97965.98;1776386;80;21810;-62
2022/01/03 02:17:44;;;;;;;3.15;0.72;;;;;;;6.23;100.00;97980.23;1760021;81;20894;-62
2022/01/03 02:20:15;;;;;;;3.27;1.12;;;;;;;6.25;100.00;97988.77;1784750;79;20847;-61
2022/01/03 02:22:43;;;;;;;2.27;1.00;;;;;;;6.22;100.00;97987.18;1731641;81;21000;-61
2022/01/03 02:25:13;;;;;;;1.70;1.02;;;;;;;6.21;100.00;97985.95;1749395;79;21014;-61
2022/01/03 02:27:40;;;;;;;2.90;1.22;;;;;;;6.20;100.00;97984.30;1789929;78;21501;-61
2022/01/03 02:30:12;;;;;;;4.53;1.27;;;;;;;6.19;100.00;97989.09;1793379;79;21014;-61
2022/01/03 02:32:39;;;;;;;2.60;0.95;;;;;;;6.21;100.00;97985.95;1790519;79;20903;-61
2022/01/03 02:35:08;;;;;;;3.27;1.02;;;;;;;6.24;100.00;98000.03;1791395;78;21387;-62
2022/01/03 02:37:35;;;;;;;1.87;0.80;;;;;;;6.21;100.00;98002.80;1776750;79;20873;-61
2022/01/03 02:40:02;;;;;;;2.05;0.80;;;;;;;6.22;100.00;97988.94;1770844;79;21028;-61
2022/01/03 02:42:29;;;;;;;2.12;1.20;;;;;;;6.23;100.00;98000.50;1792801;78;20892;-61
2022/01/03 02:45:04;;;;;;;3.55;1.10;;;;;;;6.23;100.00;98002.27;1787164;79;21458;-61
2022/01/03 02:47:31;;;;;;;2.12;0.93;;;;;;;6.24;100.00;98005.22;1759686;79;21445;-60
2022/01/03 02:49:58;;;;;;;2.83;1.20;;;;;;;6.24;100.00;98005.22;1793027;79;20919;-61
2022/01/03 02:52:25;;;;;;;3.60;1.37;;;;;;;6.25;100.00;97991.36;1793695;79;20988;-61
2022/01/03 02:54:52;;;;;;;6.22;1.70;;;;;;;6.24;100.00;97998.73;1791410;80;21666;-61
2022/01/03 02:57:23;;;;;;;3.42;1.45;;;;;;;6.23;100.00;98006.15;1792023;80;20904;-60
2022/01/03 02:59:54;;;;;;;5.40;2.15;;;;;;;6.24;100.00;98000.03;1790430;79;20923;-61
2022/01/03 03:02:26;;;;;;;5.28;2.20;;;;;;;6.21;100.00;98009.28;1791902;80;20896;-61
2022/01/03 03:04:58;;;;;;;5.28;2.20;;;;;;;6.21;100.00;98018.35;1804917;79;21502;-61
2022/01/03 03:07:30;;;;;;;6.67;2.50;;;;;;;6.19;100.00;98020.19;1801723;79;21462;-61
2022/01/03 03:09:57;;;;;;;6.85;2.35;;;;;;;6.19;100.00;98004.63;1778738;79;20934;-60
2022/01/03 03:12:25;;;;;;;;;;;;;;;6.20;100.00;98011.51;1757584;80;20979;-61
2022/01/03 03:14:52;;;;;;;;;;;;;;;6.20;100.00;98008.92;1768058;80;20098;-60
2022/01/03 03:17:19;;;;;;;;;;;;;;;6.20;100.00;98007.16;1777135;80;21285;-61
2022/01/03 03:20:00;;;;;;;;;;;;;;;6.22;100.00;98009.67;1777356;80;20113;-61
2022/01/03 03:22:28;;;;;;;;;;;;;;;6.23;100.00;97998.38;1759680;80;20105;-60
2022/01/03 03:25:10;;;;;;;;;;;;;;;6.21;100.00;98014.47;1767464;79;20104;-61
2022/01/03 03:27:43;;;;;;;;;;;;;;;6.18;100.00;98014.17;1754721;79;20096;-61
2022/01/03 03:30:11;;;;;;;;;;;;;;;6.16;100.00;98012.59;1767254;79;21105;-60
2022/01/03 03:32:37;;;;;;;;;;;;;;;6.16;100.00;98016.04;1770170;80;20443;-61
2022/01/03 03:35:04;;;;;;;;;;;;;;;6.17;100.00;98022.05;1778919;80;20113;-61
2022/01/03 03:37:31;;;;;;;;;;;;;;;6.16;100.00;98008.70;1789598;79;20131;-61
2022/01/03 03:39:57;;;;;;;;;;;;;;;6.17;100.00;98020.76;1781795;79;20121;-61
2022/01/03 03:42:23;;;;;;;;;;;;;;;6.17;100.00;98019.46;1770980;80;21169;-61
2022/01/03 03:44:50;;;;;;;;;;;;;;;6.17;100.00;98014.28;1753148;80;20159;-61
2022/01/03 03:47:16;;;;;;;;;;;;;;;6.18;100.00;98018.53;1790989;79;20080;-61
2022/01/03 03:49:43;;;;;;;;;;;;;;;6.19;100.00;98017.59;1774709;80;20139;-61
2022/01/03 03:52:09;;;;;;;;;;;;;;;6.21;100.00;98026.13;1797663;79;20084;-60
2022/01/03 03:54:36;;;;;;;;;;;;;;;6.23;100.00;98026.88;1767641;79;21251;-61
2022/01/03 03:57:03;;;;;;;;;;;;;;;6.24;100.00;98033.72;1767888;79;20098;-61
2022/01/03 03:59:30;;;;;;;;;;;;;;;6.25;100.00;98031.53;1776137;79;20116;-61
2022/01/03 04:01:57;;;;;;;;;;;;;;;6.26;100.00;98029.30;1776771;80;20750;-61
2022/01/03 04:04:23;;;;;;;;;;;;;;;6.25;100.00;98028.47;1793553;80;20418;-61
2022/01/03 04:06:50;;;;;;;;;;;;;;;6.23;100.00;98021.70;1803894;78;21201;-61
2022/01/03 04:09:16;;;;;;;;;;;;;;;6.22;100.00;98038.19;1782835;80;20100;-60
2022/01/03 04:11:43;;;;;;;;;;;;;;;6.21;100.00;98041.21;1787639;79;20463;-61
2022/01/03 04:14:09;;;;;;;;;;;;;;;6.20;100.00;98038.72;1780239;79;20127;-60
2022/01/03 04:16:36;;;;;;;;;;;;;;;6.18;100.00;98034.08;1766209;78;20115;-61
2022/01/03 04:19:03;;;;;;;;;;;;;;;6.15;100.00;98027.77;1744378;80;21042;-61
2022/01/03 04:21:29;;;;;;;;;;;;;;;6.13;100.00;98039.97;1757516;80;20080;-61
2022/01/03 04:23:56;;;;;;;;;;;;;;;6.09;100.00;98039.78;1736023;81;20446;-61
2022/01/03 04:26:22;;;;;;;;;;;;;;;6.08;100.00;98043.27;1760915;81;20084;-61
2022/01/03 04:28:49;;;;;;;;;;;;;;;6.07;100.00;98035.14;1767965;79;20080;-62
2022/01/03 04:31:15;;;;;;;;;;;;;;;6.09;100.00;98041.08;1764370;79;21042;-61
2022/01/03 04:33:42;;;;;;;;;;;;;;;6.10;100.00;98036.26;1766273;79;20099;-61
2022/01/03 04:36:10;;;;;;;;;;;;;;;6.11;100.00;98045.73;1773808;79;20476;-61
2022/01/03 04:38:37;;;;;;;;;;;;;;;6.10;100.00;98041.44;1769562;80;20541;-62
2022/01/03 04:41:04;;;;;;;;;;;;;;;6.11;100.00;98040.54;1769720;79;20183;-61
2022/01/03 04:43:31;;;;;;;;;;;;;;;6.07;100.00;98037.27;1770421;79;21073;-61
2022/01/03 04:45:57;;;;;;;;;;;;;;;6.07;100.00;98028.66;1772381;79;20468;-61
2022/01/03 04:48:24;;;;;;;;;;;;;;;6.05;100.00;98034.77;1766171;79;20076;-61
2022/01/03 04:50:50;;;;;;;;;;;;;;;6.04;100.00;98031.79;1767354;79;20592;-61
2022/01/03 04:53:17;;;;;;;;;;;;;;;6.08;100.00;98032.91;1773085;79;20093;-61
2022/01/03 04:55:44;;;;;;;;;;;;;;;6.12;100.00;98025.36;1773366;79;21940;-61
2022/01/03 04:58:10;;;;;;;;;;;;;;;6.11;100.00;98019.81;1774098;81;20137;-61
2022/01/03 05:00:38;;;;;;;;;;;;;;;6.11;100.00;98021.11;1768269;79;20109;-60
2022/01/03 05:03:05;;;;;;;;;;;;;;;6.10;100.00;98022.01;1773363;79;20436;-61
2022/01/03 05:05:31;;;;;;;;;;;;;;;6.08;100.00;98027.73;1773426;79;20114;-60
2022/01/03 05:07:57;;;;;;;;;;;;;;;6.07;100.00;98028.66;1761696;79;21092;-61
2022/01/03 05:10:24;;;;;;;;;;;;;;;6.07;100.00;98027.36;1758227;79;20438;-61
2022/01/03 05:12:50;;;;;;;;;;;;;;;6.07;100.00;98031.25;1769346;79;20090;-61
2022/01/03 05:15:16;;;;;;;;;;;;;;;6.10;100.00;98038.85;1770352;79;20087;-61
2022/01/03 05:17:42;;;;;;;;;;;;;;;6.10;100.00;98037.09;1760488;79;20101;-61
2022/01/03 05:20:09;;;;;;;;;;;;;;;6.10;100.00;98033.67;1782972;79;21006;-61
2022/01/03 05:22:36;;;;;;;;;;;;;;;6.12;100.00;98039.61;1774115;79;20153;-61
2022/01/03 05:25:03;;;;;;;;;;;;;;;6.12;100.00;98027.48;1761421;79;20084;-61
2022/01/03 05:27:29;;;;;;;;;;;;;;;6.13;100.00;98036.09;1768522;79;20477;-61
2022/01/03 05:29:55;;;;;;;;;;;;;;;6.12;100.00;98034.42;1776825;79;20125;-61
2022/01/03 05:32:22;;;;;;;;;;;;;;;6.10;100.00;98034.97;1757208;79;21141;-61
2022/01/03 05:34:48;;;;;;;;;;;;;;;6.09;100.00;98039.78;1774823;79;20117;-61
2022/01/03 05:37:14;;;;;;;;;;;;;;;6.08;100.00;98043.27;1773029;79;20444;-61
2022/01/03 05:39:41;;;;;;;;;;;;;;;6.06;100.00;98048.56;1782806;79;20095;-61
2022/01/03 05:42:07;;;;;;;;;;;;;;;6.05;100.00;98041.25;1767263;79;20113;-60
2022/01/03 05:44:33;;;;;;;;;;;;;;;6.08;100.00;98040.69;1772022;79;21047;-60
2022/01/03 05:47:00;;;;;;;;;;;;;;;6.04;100.00;98044.75;1773701;79;20097;-60
2022/01/03 05:49:26;;;;;;;;;;;;;;;6.07;100.00;98042.91;1783170;79;20091;-61
2022/01/03 05:51:53;;;;;;;;;;;;;;;6.04;100.00;98043.45;1795411;79;20091;-61
2022/01/03 05:54:19;;;;;;;;;;;;;;;6.05;100.00;98052.91;1795642;78;20080;-61
2022/01/03 05:56:46;;;;;;;;;;;;;;;6.08;100.00;98051.05;1752439;79;21092;-61
2022/01/03 05:59:12;;;;;;;;;;;;;;;6.08;100.00;98047.16;1760700;80;20130;-62
2022/01/03 06:01:40;;;;;;;;;;;;;;;6.08;100.00;98044.57;1766545;79;20420;-61
2022/01/03 06:04:24;;;;;;;;;;;;;;;6.11;100.00;98049.61;1762569;80;20486;-61
2022/01/03 06:06:58;;;;;;;;;;;;;;;6.09;100.00;98052.73;1765339;80;20088;-61
2022/01/03 06:09:24;;;;;;;;;;;;;;;6.07;100.00;98055.41;1759355;80;20989;-61
2022/01/03 06:11:52;;;;;;;;;;;;;;;6.07;100.00;98054.57;1782666;78;20096;-61
2022/01/03 06:14:19;;;;;;;;;;;;;;;6.09;100.00;98063.10;1745087;81;20463;-62
2022/01/03 06:16:47;;;;;;;;;;;;;;;6.05;100.00;98068.46;1773867;80;20575;-61
2022/01/03 06:19:14;;;;;;;;;;;;;;;6.07;100.00;98070.95;1770056;80;20131;-61
2022/01/03 06:21:41;;;;;;;;;;;;;;;6.08;100.00;98067.45;1784418;80;21097;-62
2022/01/03 06:24:09;;;;;;;;;;;;;;;6.04;100.00;98064.17;1796965;79;20087;-62
2022/01/03 06:26:36;;;;;;;;;;;;;;;6.04;100.00;98069.36;1797623;78;20446;-61
2022/01/03 06:29:05;;;;;;;;;;;;;;;6.03;100.00;98067.70;1781595;80;20114;-63
2022/01/03 06:31:32;;;;;;;;;;;;;;;6.02;100.00;98080.29;1760835;81;20408;-61
2022/01/03 06:34:00;;;;;;;;;;;;;;;5.99;100.00;98077.87;1768633;79;20997;-60
2022/01/03 06:36:26;;;;;;;;;;;;;;;5.96;100.00;98069.41;1766006;80;20090;-62
2022/01/03 06:38:53;;;;;;;;;;;;;;;5.99;100.00;98076.58;1762061;81;20458;-60
2022/01/03 06:41:19;;;;;;;;;;;;;;;5.99;100.00;98079.16;1788541;80;20569;-61
2022/01/03 06:43:46;;;;;;;;;;;;;;;6.00;100.00;98078.23;1773814;80;20092;-62
2022/01/03 06:46:12;;;;;;;;;;;;;;;5.98;100.00;98077.47;1794538;80;21197;-61
2022/01/03 06:48:38;;;;;;;;;;;;;;;5.97;100.00;98074.52;1784289;80;20098;-61
2022/01/03 06:51:05;;;;;;;;;;;;;;;5.95;100.00;98076.81;1748386;80;20086;-60
2022/01/03 06:53:32;;;;;;;;;;;;;;;5.93;100.00;98076.89;1749210;81;20904;-60
2022/01/03 06:55:58;;;;;;;;;;;;;;;5.92;100.00;98077.78;1763233;80;20537;-61
2022/01/03 06:58:25;;;;;;;;;;;;;;;5.94;100.00;98079.87;1786162;79;21098;-61
2022/01/03 07:00:52;;;;;;;;;;;;;;;5.94;100.00;98086.34;1744891;80;20184;-61
2022/01/03 07:03:22;;;;;;;;;;;;;;;5.96;100.00;98088.37;1777044;79;20186;-61
2022/01/03 07:05:49;;;;;;;;;;;;;;;5.99;100.00;98095.14;1790776;78;20135;-61
2022/01/03 07:08:16;;;;;;;;;;;;;;;5.98;100.00;98090.42;1765558;80;20093;-60
2022/01/03 07:10:44;;;;;;;;;;;;;;;5.99;100.00;98089.53;1774596;80;20165;-61
2022/01/03 07:13:12;;;;;;;;;;;;;;;5.98;100.00;98098.20;1772412;79;20619;-61
2022/01/03 07:21:20;;;;;;;;;;;;;;;5.95;100.00;98094.48;1775320;79;20092;-60
2022/01/03 07:23:49;;;;;;;;;;;;;;;5.97;100.00;98087.94;1747253;81;20630;-60
2022/01/03 07:26:17;;;;;;;;;;;;;;;5.97;100.00;98091.36;1772903;79;20104;-61
2022/01/03 07:28:47;;;;;;;;;;;;;;;5.96;100.00;98090.97;1783514;80;20179;-61
2022/01/03 07:31:14;;;;;;;;;;;;;;;5.96;100.00;98094.84;1762271;79;20109;-61
2022/01/03 07:33:42;;;;;;;;;;;;;;;5.92;100.00;98092.03;1770824;80;20082;-60
2022/01/03 07:36:12;;;;;;;;;;;;;;;5.92;100.00;98095.91;1740295;81;21937;-61
2022/01/03 07:38:46;;;;;;;;;;;;;;;5.94;100.00;98095.41;1750326;80;20135;-60
2022/01/03 07:41:12;;;;;;;;;;;;;;;5.96;100.00;98100.03;1762408;80;20141;-61
2022/01/03 07:43:45;;;;;;;;;;;;;;;5.96;100.00;98096.14;1782585;80;20131;-60
2022/01/03 07:46:15;;;;;;;;;;;;;;;5.99;100.00;98101.19;1747905;80;20074;-61
2022/01/03 07:48:42;;;;;;;;;;;;;;;6.02;100.00;98094.54;1751199;79;21011;-61
2022/01/03 07:51:09;;;;;;;;;;;;;;;6.01;100.00;98103.21;1729022;80;20081;-61
2022/01/03 07:53:37;;;;;;;;;;;;;;;6.02;100.00;98103.61;1763353;79;20088;-60
2022/01/03 07:56:06;;;;;;;;;;;;;;;6.03;100.00;98104.44;1721040;82;20637;-60
2022/01/03 07:58:35;;;;;;;;;;;;;;;6.04;100.00;98101.75;1721712;83;20155;-60
2022/01/03 08:01:05;;;;;;;;;;;;;;;6.04;100.00;98097.86;1734843;82;20129;-61
2022/01/03 08:03:56;;;;;;;;;;;;;;;6.05;100.00;98103.44;1706975;82;20114;-61
2022/01/03 08:06:20;;;;;;;;;;;;;;;6.09;100.00;98109.74;1716536;82;20131;-61
2022/01/03 08:08:47;;;;;;;;;;;;;;;6.10;100.00;98107.52;1726314;82;20156;-60
2022/01/03 08:11:14;;;;;;;;;;;;;;;6.12;100.00;98108.28;1742485;80;20134;-61
2022/01/03 08:13:48;;;;;;;;;;;;;;;6.16;100.00;98107.17;1723404;83;20116;-60
2022/01/03 08:16:27;;;;;;;;;;;;;;;6.19;100.00;98110.89;1726185;82;20086;-60
2022/01/03 08:18:58;;;;;;;;;;;;;;;6.22;100.00;98108.16;1723983;82;20112;-60
2022/01/03 08:21:25;;;;;;;;;;;;;;;6.20;100.00;98113.41;1734595;81;20469;-60
2022/01/03 08:23:56;;;;;;;;;;;;;;;6.21;100.00;98114.24;1739140;81;20491;-61
2022/01/03 08:26:22;;;;;;;;;;;;;;;6.21;100.00;98107.30;1725832;80;21148;-60
2022/01/03 08:28:51;;;;;;;;;;;;;;;6.22;100.00;98113.34;1720983;81;20128;-60
2022/01/03 08:31:23;;;;;;;;;;;;;;;6.21;100.00;98111.65;1702102;82;20095;-61
2022/01/03 08:33:50;;;;;;;;;;;;;;;6.17;100.00;98116.17;1730609;81;20152;-61
2022/01/03 08:36:17;;;;;;;;;;;;;;;6.18;100.00;98115.24;1719562;82;20090;-60
2022/01/03 08:38:43;;;;;;;;;;;;;;;6.20;100.00;98115.17;1734807;80;21685;-62
2022/01/03 08:41:10;;;;;;;;;;;;;;;6.21;100.00;98114.24;1741230;80;20096;-61
2022/01/03 08:43:37;;;;;;;;;;;;;;;6.18;100.00;98117.00;1744212;82;20114;-61
2022/01/03 08:46:04;;;;;;;;;;;;;;;6.17;100.00;98110.16;1743308;82;20519;-62
2022/01/03 08:48:35;;;;;;;;;;;;;;;6.15;100.00;98117.17;1737513;80;20098;-61
2022/01/03 08:51:04;;;;;;;;;;;;;;;6.13;100.00;98121.60;1729868;82;21098;-62
2022/01/03 08:53:37;;;;;;;;;;;;;;;6.13;100.00;98126.78;1714223;82;20096;-61
2022/01/03 08:56:08;;;;;;;;;;;;;;;6.14;100.00;98123.29;1758692;79;20121;-61
2022/01/03 08:58:36;;;;;;;;;;;;;;;6.12;100.00;98122.53;1765865;78;20120;-62
2022/01/03 09:01:04;;;;;;;;;;;;;;;6.13;100.00;98120.30;1768961;80;20087;-61
2022/01/03 09:03:39;;;;;;;;;;;;;;;6.16;100.00;98116.25;1790102;79;21095;-61
2022/01/03 09:06:05;;;;;;;;;;;;;;;6.19;100.00;98103.11;1763480;80;20106;-61
2022/01/03 09:08:35;;;;;;;;;;;;;;;6.22;100.00;98118.52;1744358;81;20440;-61
2022/01/03 09:11:02;;;;;;;;;;;;;;;6.23;100.00;98120.19;1765163;81;20186;-62
2022/01/03 09:13:32;;;;;;;;;;;;;;;6.25;100.00;98118.36;1767237;79;20421;-61
2022/01/03 09:16:04;;;;;;;;;;;;;;;6.25;100.00;98119.65;1784978;79;21272;-61
2022/01/03 09:18:28;;;;;;;;;;;;;;;6.28;100.00;98122.06;1759287;79;20235;-61
2022/01/03 09:20:54;;;;;;;;;;;;;;;6.33;100.00;98123.95;1780605;79;20138;-61
2022/01/03 09:23:27;;;;;;;;;;;;;;;6.38;100.00;98121.91;1778743;79;20498;-62
2022/01/03 09:28:56;;;;;;;;;;;;;;;6.46;100.00;98119.73;1772467;79;21735;-61
2022/01/03 09:31:34;;;;;;;;;;;;;;;6.46;100.00;98121.03;1767674;79;20141;-61
2022/01/03 09:34:06;;;;;;;;;;;;;;;6.47;100.00;98124.02;1775551;79;20125;-61
2022/01/03 09:36:33;;;;;;;;;;;;;;;6.44;100.00;98116.41;1748159;79;20128;-61
2022/01/03 09:39:00;;;;;;;;;;;;;;;6.46;100.00;98118.91;1771382;79;20080;-62
2022/01/03 09:41:28;;;;;;;;;;;;;;;6.48;100.00;98108.82;1780404;80;21055;-61
2022/01/03 09:44:03;;;;;;;;;;;;;;;6.46;100.00;98115.02;1740234;80;20736;-61
2022/01/03 09:46:36;;;;;;;;;;;;;;;6.48;100.00;98123.08;1779497;79;20092;-61
2022/01/03 09:49:06;;;;;;;;;;;;;;;6.50;100.00;98116.06;1755275;79;20138;-61
2022/01/03 09:51:39;;;;;;;;;;;;;;;6.53;100.00;98116.82;1746963;80;20089;-60
2022/01/03 09:54:10;;;;;;;;;;;;;;;6.57;100.00;98113.12;1759280;80;21392;-60
2022/01/03 09:56:39;;;;;;;;;;;;;;;6.62;100.00;98116.29;1777133;79;20125;-60
2022/01/03 09:59:11;;;;;;;;;;;;;;;6.68;100.00;98113.34;1760438;80;20441;-61
2022/01/03 10:01:41;;;;;;;;;;;;;;;6.68;100.00;98113.34;1758228;80;20105;-60
2022/01/03 10:04:11;;;;;;;;;;;;;;;6.68;100.00;98107.69;1759062;80;20126;-61
2022/01/03 10:06:41;;;;;;;;;;;;;;;6.68;100.00;98112.05;1756122;80;21891;-61
2022/01/03 10:09:19;;;;;;;;;;;;;;;6.65;100.00;98099.25;1779568;80;20092;-61
2022/01/03 10:11:43;;;;;;;;;;;;;;;6.63;100.00;98108.41;1772910;79;20152;-61
2022/01/03 10:14:12;;;;;;;;;;;;;;;6.64;100.00;98109.27;1765920;80;20425;-61
2022/01/03 10:16:43;;;;;;;;;;;;;;;6.68;100.00;98105.56;1764687;80;20090;-60
2022/01/03 10:19:15;;;;;;;;;;;;;;;6.71;100.00;98105.38;1760612;80;21024;-60
2022/01/03 10:22:04;;;;;;;;;;;;;;;;;;;;;
2022/01/03 10:24:37;;;;;;;;;;;;;;;6.86;100.00;98099.33;1750840;80;20484;-60
2022/01/03 10:27:06;;;;;;;;;;;;;;;6.94;100.00;98106.64;1754763;80;20143;-60
2022/01/03 10:29:33;;;;;;;;;;;;;;;6.95;100.00;98098.78;1763383;80;20097;-61
2022/01/03 10:32:01;;;;;;;;;;;;;;;6.98;100.00;98099.54;1757533;79;21870;-61
2022/01/03 10:34:28;;;;;;;;;;;;;;;7.00;100.00;98097.66;1756184;79;20461;-61
2022/01/03 10:36:56;;;;;;;;;;;;;;;7.00;100.00;98101.56;1766195;80;20439;-61
2022/01/03 10:39:28;;;;;;;;;;;;;;;7.03;100.00;98102.67;1748563;81;20145;-60
2022/01/03 10:42:27;;;;;;;;;;;;;;;;;;;;;
2022/01/03 10:45:02;;;;;;;;;;;;;;;7.05;100.00;98108.15;1766174;79;21058;-61
2022/01/03 10:47:34;;;;;;;;;;;;;;;7.09;100.00;98102.34;1743627;81;20110;-60
2022/01/03 10:50:17;;;;;;;;;;;;;;;7.09;100.00;98101.88;1760841;80;20099;-60
2022/01/03 10:52:47;;;;;;;;;;;;;;;7.10;100.00;98097.51;1753931;79;20167;-60
2022/01/03 10:55:33;;;;;;;;;;;;;;;7.10;100.00;98100.10;1737170;81;20106;-60
2022/01/03 10:58:06;;;;;;;;;;;;;;;7.09;100.00;98097.15;1743199;80;20075;-60
2022/01/03 11:00:36;;;;;;;;;;;;;;;7.08;100.00;98098.05;1745504;81;20492;-61
2022/01/03 11:03:29;;;;;;;;;;;;;;;7.08;100.00;98097.58;1748400;81;20108;-60
2022/01/03 11:06:20;;;;;;;;;;;;;;;7.06;100.00;98096.03;1735086;81;20117;-60
2022/01/03 11:11:35;;;;;;;;;;;;;;;7.26;100.00;98096.98;1741686;81;20142;-60
2022/01/03 11:14:13;;;;;;;;;;;;;;;;;;;;;
2022/01/03 11:16:39;;;;;;;;;;;;;;;7.37;100.00;98090.67;1765387;79;20116;-60
2022/01/03 11:19:11;;;;;;;;;;;;;;;7.33;100.00;98085.28;1765706;79;20086;-60
2022/01/03 11:21:44;;;;;;;;;;;;;;;7.30;100.00;98085.47;1764006;79;20124;-60
2022/01/03 11:24:11;;;;;;;;;;;;;;;7.25;100.00;98088.80;1726123;82;22271;-61
2022/01/03 11:26:43;;;;;;;;;;;;;;;7.22;100.00;98085.56;1745074;81;20466;-60
2022/01/03 11:29:08;;;;;;;;;;;;;;;7.15;100.00;98085.09;1769162;79;20115;-60
2022/01/03 11:31:40;;;;;;;;;;;;;;;7.09;100.00;98090.66;1749031;80;20124;-61
2022/01/03 11:34:09;;;;;;;;;;;;;;;7.03;100.00;98089.27;1735606;81;20466;-61
2022/01/03 11:36:39;;;;;;;;;;;;;;;6.99;100.00;98090.81;1744784;81;21106;-61
2022/01/03 11:39:13;;;;;;;;;;;;;;;6.91;100.00;98084.30;1750686;81;20112;-61
2022/01/03 11:41:44;;;;;;;;;;;;;;;6.90;100.00;98085.23;1727535;80;20096;-61
2022/01/03 11:44:14;;;;;;;;;;;;;;;6.93;100.00;98091.55;1752120;80;20171;-61
2022/01/03 11:46:48;;;;;;;;;;;;;;;6.98;100.00;98083.97;1757831;81;20108;-61
2022/01/03 11:49:19;;;;;;;;;;;;;;;6.93;100.00;98092.84;1742166;81;21087;-62
2022/01/03 11:51:53;;;;;;;;;;;;;;;6.92;100.00;98080.80;1756846;81;20155;-62
2022/01/03 11:54:24;;;;;;;;;;;;;;;6.90;100.00;98070.97;1726924;81;20088;-61
2022/01/03 11:57:08;;;;;;;;;;;;;;;6.92;100.00;98079.97;1724568;81;20649;-60
2022/01/03 12:05:20;;;;;;;;;;;;;;;6.85;100.00;98074.29;1761057;80;20153;-61
2022/01/03 12:07:57;;;;;;;;;;;;;;;6.84;100.00;98075.22;1760954;80;20453;-61
2022/01/03 12:10:28;;;;;;;;;;;;;;;6.82;100.00;98071.88;1753067;80;20157;-61
2022/01/03 12:12:59;;;;;;;;;;;;;;;6.79;100.00;98077.25;1736216;80;20105;-60
2022/01/03 12:15:31;;;;;;;;;;;;;;;6.78;100.00;98070.40;1752875;79;21089;-60
2022/01/03 12:17:59;;;;;;;;;;;;;;;6.73;100.00;98090.58;1755264;79;20153;-59
2022/01/03 12:20:48;;;;;;;;;;;;;;;6.70;100.00;98078.61;1747880;79;20133;-60
2022/01/03 12:23:47;;;;;;;;;;;;;;;6.65;100.00;98087.59;1722445;80;20126;-61
2022/01/03 12:26:23;;;;;;;;;;;;;;;6.59;100.00;98085.34;1757193;79;20149;-60
2022/01/03 12:29:07;;;;;;;;;;;;;;;6.52;100.00;98089.20;1760636;80;21740;-60
2022/01/03 12:32:08;;;;;;;;;;;;;;;6.48;100.00;98084.19;1755750;80;20821;-60
2022/01/03 12:34:38;;;;;;;;;;;;;;;6.45;100.00;98071.88;1706500;81;20141;-60
2022/01/03 12:37:20;;;;;;;;;;;;;;;6.40;100.00;98078.59;1771671;79;20111;-60
2022/01/03 12:40:12;;;;;;;;;;;;;;;6.35;100.00;98070.24;1764624;79;20400;-60
2022/01/03 12:42:58;;;;;;;;;;;;;;;6.35;100.00;98080.61;1735147;80;20901;-60
2022/01/03 12:45:50;;;;;;;;;;;;;;;6.33;100.00;98074.70;1728856;80;20105;-60
2022/01/03 12:48:18;;;;;;;;;;;;;;;6.34;100.00;98072.94;1763982;80;20114;-60
2022/01/03 12:51:03;;;;;;;;;;;;;;;6.35;100.00;98067.65;1764499;80;20088;-60
2022/01/03 12:53:34;;;;;;;;;;;;;;;6.33;100.00;98072.11;1756809;80;20143;-60
2022/01/03 12:56:10;;;;;;;;;;;;;;;6.32;100.00;98070.42;1747030;79;21147;-60
2022/01/03 12:58:39;;;;;;;;;;;;;;;6.29;100.00;98073.19;1720007;82;20286;-61
2022/01/03 13:01:15;;;;;;;;;;;;;;;6.32;100.00;98070.42;1725909;82;20126;-60
2022/01/03 13:03:52;;;;;;;;;;;;;;;6.28;100.00;98072.82;1718445;82;20498;-60
2022/01/03 13:06:30;;;;;;;;;;;;;;;6.27;100.00;98059.47;1738395;82;20435;-59